Terminal Aerodrome Forecast
Issued by NWS South Bend, IN

Home | Current Version | Previous Version | Text Only | Print | Product List | Glossary Off
Versions: 1 2 3 4 5 6 7 8 9 10 11 12 13 14

000
FTUS43 KIWX 291100
TAFSBN
TAF
KSBN 291120Z 2912/3012 18008KT P6SM SCT250
     FM291300 18014G22KT P6SM BKN150
     FM291600 19020G30KT P6SM SCT030 OVC060
      TEMPO 2920/2924 6SM -SHRA BKN030
     FM300000 23016G26KT P6SM BKN030
     FM300400 27012G20KT P6SM SCT030=

USA.gov is the U.S. government's official web portal to all federal, state and local government web resources and services.